Time;durP1;ratioP1;P1;durP2;ratioP2;P2;SDS_P1;SDS_P2;PMS_P1;PMS_P2;Temp;Humidity;BMP_temperature;BMP_pressure;BME280_temperature;BME280_humidity;BME280_pressure;Samples;Min_cycle;Max_cycle;Signal;HPM_P1;HPM_P2
2022/09/07 00:01:17;;;;;;;21.02;3.22;;;16.40;99.90;;;;;;5033356;28;20177;-57
2022/09/07 00:03:43;;;;;;;29.95;4.05;;;16.30;99.90;;;;;;5033170;28;20177;-56
2022/09/07 00:06:11;;;;;;;23.20;3.13;;;16.30;99.90;;;;;;5033374;28;20216;-58
2022/09/07 00:08:38;;;;;;;30.25;3.95;;;16.30;99.90;;;;;;5033291;28;20601;-58
2022/09/07 00:11:13;;;;;;;25.35;4.15;;;16.30;99.90;;;;;;5033160;28;20209;-57
2022/09/07 00:13:40;;;;;;;21.63;4.25;;;16.30;99.90;;;;;;5033128;28;20260;-58
2022/09/07 00:16:12;;;;;;;25.05;3.60;;;16.30;99.90;;;;;;5032935;28;20218;-58
2022/09/07 00:18:38;;;;;;;24.63;3.70;;;16.30;99.90;;;;;;5032934;28;20190;-57
2022/09/07 00:21:07;;;;;;;24.20;3.97;;;16.40;99.90;;;;;;5032860;28;20185;-57
2022/09/07 00:23:35;;;;;;;25.25;3.70;;;16.40;99.90;;;;;;5033092;28;20173;-57
2022/09/07 00:26:15;;;;;;;24.63;3.47;;;16.40;99.90;;;;;;5032796;28;20685;-58
2022/09/07 00:28:42;;;;;;;25.35;3.42;;;16.50;99.90;;;;;;5032848;28;20199;-58
2022/09/07 00:31:10;;;;;;;20.70;3.75;;;16.50;99.90;;;;;;5032726;28;20177;-58
2022/09/07 00:33:36;;;;;;;27.58;4.25;;;16.60;99.90;;;;;;5032754;28;20166;-58
2022/09/07 00:36:02;;;;;;;24.98;3.55;;;16.60;99.90;;;;;;5032685;28;20584;-58
2022/09/07 00:38:27;;;;;;;22.17;2.95;;;16.60;99.90;;;;;;5032853;28;20174;-57
2022/09/07 00:40:53;;;;;;;26.52;3.83;;;16.60;99.90;;;;;;5032554;28;20708;-58
2022/09/07 00:43:33;;;;;;;22.83;4.00;;;16.60;99.90;;;;;;5032436;28;20208;-57
2022/09/07 00:45:59;;;;;;;29.55;4.07;;;16.60;99.90;;;;;;5032384;28;20521;-57
2022/09/07 00:48:32;;;;;;;29.90;4.47;;;16.60;99.90;;;;;;5032489;28;20174;-58
2022/09/07 00:51:03;;;;;;;29.60;3.65;;;16.60;99.90;;;;;;5032486;28;20543;-58
2022/09/07 00:53:53;;;;;;;26.38;3.55;;;16.50;99.90;;;;;;5032454;28;20201;-58
2022/09/07 00:56:25;;;;;;;32.05;3.80;;;16.60;99.90;;;;;;5032606;28;20209;-58
2022/09/07 00:58:51;;;;;;;29.30;4.35;;;16.50;99.90;;;;;;5032398;28;20178;-58
2022/09/07 01:01:17;;;;;;;23.30;4.07;;;16.50;99.90;;;;;;5032205;28;20174;-58
2022/09/07 01:03:47;;;;;;;27.20;3.80;;;16.50;99.90;;;;;;5032148;28;20166;-58
2022/09/07 01:06:34;;;;;;;27.60;4.43;;;16.40;99.90;;;;;;5031359;28;20265;-58
2022/09/07 01:09:04;;;;;;;25.75;3.42;;;16.40;99.90;;;;;;5032087;28;20166;-58
2022/09/07 01:11:32;;;;;;;31.65;4.28;;;16.30;99.90;;;;;;5031808;28;20739;-58
2022/09/07 01:13:58;;;;;;;22.83;3.50;;;16.30;99.90;;;;;;5031961;28;20204;-58
2022/09/07 01:16:53;;;;;;;28.55;3.92;;;16.30;99.90;;;;;;5031776;28;20676;-57
2022/09/07 01:19:43;;;;;;;26.80;3.70;;;16.40;99.90;;;;;;5031913;28;20632;-58
2022/09/07 01:22:28;;;;;;;21.52;4.18;;;16.40;99.90;;;;;;5031586;28;20674;-58
2022/09/07 01:25:20;;;;;;;29.10;3.83;;;16.40;99.90;;;;;;5031565;28;20170;-58
2022/09/07 01:28:00;;;;;;;28.52;4.40;;;16.50;99.90;;;;;;5018673;28;20183;-58
2022/09/07 01:30:28;;;;;;;28.00;4.15;;;16.50;99.90;;;;;;5011843;28;20179;-58
2022/09/07 01:33:04;;;;;;;24.13;3.90;;;16.50;99.90;;;;;;5011886;28;20202;-58
2022/09/07 01:35:44;;;;;;;34.63;4.25;;;16.60;99.90;;;;;;5011686;28;20218;-57
2022/09/07 01:38:13;;;;;;;26.33;4.45;;;16.60;99.90;;;;;;5011658;28;20181;-58
2022/09/07 01:40:50;;;;;;;21.88;2.92;;;16.70;99.90;;;;;;5011610;28;20230;-58
2022/09/07 01:43:34;;;;;;;34.38;3.88;;;16.60;99.90;;;;;;5011744;28;20594;-58
2022/09/07 01:46:04;;;;;;;27.90;3.30;;;16.60;99.90;;;;;;5011620;28;20249;-58
2022/09/07 01:48:33;;;;;;;24.42;3.45;;;16.60;99.90;;;;;;5011746;28;20268;-58
2022/09/07 01:51:02;;;;;;;31.77;3.85;;;16.60;99.90;;;;;;5011550;28;20181;-58
2022/09/07 01:53:36;;;;;;;25.02;4.13;;;16.60;99.90;;;;;;5011578;28;20166;-58
2022/09/07 01:56:15;;;;;;;24.60;3.33;;;16.50;99.90;;;;;;5011409;28;20626;-58
2022/09/07 01:58:50;;;;;;;21.52;3.45;;;16.60;99.90;;;;;;5011413;28;20173;-58
2022/09/07 02:01:22;;;;;;;21.60;3.45;;;16.60;99.90;;;;;;5011467;28;20170;-58
2022/09/07 02:03:57;;;;;;;22.17;3.55;;;16.60;99.90;;;;;;5011246;28;20254;-58
2022/09/07 02:06:35;;;;;;;30.20;3.92;;;16.50;99.90;;;;;;5011340;28;20265;-58
2022/09/07 02:09:20;;;;;;;26.88;3.38;;;16.60;99.90;;;;;;5011224;28;20677;-57
2022/09/07 02:11:49;;;;;;;19.75;3.85;;;16.60;99.90;;;;;;5011351;28;20178;-58
2022/09/07 02:14:38;;;;;;;29.60;3.85;;;16.60;99.90;;;;;;5011347;28;20174;-58
2022/09/07 02:17:32;;;;;;;23.85;3.80;;;16.60;99.90;;;;;;5011025;28;20214;-57
2022/09/07 02:20:08;;;;;;;27.60;4.20;;;16.70;99.90;;;;;;5009956;28;20187;-58
2022/09/07 02:22:40;;;;;;;27.80;3.60;;;16.70;99.90;;;;;;5011227;28;20177;-59
2022/09/07 02:25:07;;;;;;;27.25;3.65;;;16.70;99.90;;;;;;5011115;28;20182;-59
2022/09/07 02:27:44;;;;;;;19.70;3.63;;;16.70;99.90;;;;;;5011077;28;20190;-57
2022/09/07 02:30:10;;;;;;;28.05;4.05;;;16.70;99.90;;;;;;5010961;28;20553;-58
2022/09/07 02:32:36;;;;;;;31.65;5.00;;;16.80;99.90;;;;;;5011082;28;20171;-58
2022/09/07 02:35:02;;;;;;;27.35;3.92;;;16.70;99.90;;;;;;5010904;28;20724;-59
2022/09/07 02:37:28;;;;;;;36.45;4.20;;;16.70;99.90;;;;;;5010962;28;20175;-58
2022/09/07 02:39:54;;;;;;;27.63;3.35;;;16.70;99.90;;;;;;5010852;28;20221;-59
2022/09/07 02:42:20;;;;;;;34.92;3.90;;;16.70;99.90;;;;;;5011030;28;20645;-59
2022/09/07 02:44:46;;;;;;;32.13;4.20;;;16.70;99.90;;;;;;5011041;28;20158;-59
2022/09/07 02:47:40;;;;;;;32.58;4.25;;;16.60;99.90;;;;;;5010986;28;20190;-58
2022/09/07 02:50:27;;;;;;;28.83;4.10;;;16.60;99.90;;;;;;5010976;28;20166;-59
2022/09/07 02:52:56;;;;;;;29.42;4.95;;;16.60;99.90;;;;;;5010959;28;20179;-59
2022/09/07 02:55:33;;;;;;;27.38;4.03;;;16.70;99.90;;;;;;5010968;28;20305;-58
2022/09/07 02:58:18;;;;;;;27.63;3.90;;;16.70;99.90;;;;;;5010931;28;20170;-58
2022/09/07 03:01:07;;;;;;;30.33;4.43;;;16.70;99.90;;;;;;5010764;28;20193;-58
2022/09/07 03:04:10;;;;;;;25.38;4.45;;;16.70;99.90;;;;;;5011023;28;20179;-58
2022/09/07 03:06:44;;;;;;;29.65;4.32;;;16.70;99.90;;;;;;5010812;28;20170;-58
2022/09/07 03:09:17;;;;;;;27.77;3.88;;;16.70;99.90;;;;;;5010691;28;20181;-57
2022/09/07 03:11:43;;;;;;;23.30;3.63;;;16.70;99.90;;;;;;5010754;28;20640;-57
2022/09/07 03:14:16;;;;;;;27.90;3.72;;;16.70;99.90;;;;;;5010734;28;20203;-58
2022/09/07 03:16:42;;;;;;;26.77;4.75;;;16.70;99.90;;;;;;5010525;28;20202;-58
2022/09/07 03:19:08;;;;;;;35.58;4.20;;;16.60;99.90;;;;;;5010544;28;20273;-58
2022/09/07 03:21:34;;;;;;;30.30;4.28;;;16.60;99.90;;;;;;5010584;28;20178;-58
2022/09/07 03:24:00;;;;;;;26.73;4.63;;;16.50;99.90;;;;;;5010476;28;20180;-57
2022/09/07 03:26:27;;;;;;;24.77;4.35;;;16.50;99.90;;;;;;5010539;28;20178;-58
2022/09/07 03:28:52;;;;;;;34.13;4.10;;;16.50;99.90;;;;;;5011079;28;20297;-57
2022/09/07 03:31:19;;;;;;;25.42;3.88;;;16.50;99.90;;;;;;5016002;28;20265;-58
2022/09/07 03:33:45;;;;;;;27.55;3.67;;;16.50;99.90;;;;;;5022505;28;20640;-57
2022/09/07 03:36:11;;;;;;;31.42;4.03;;;16.50;99.90;;;;;;5033675;28;20208;-58
2022/09/07 03:38:36;;;;;;;23.73;4.30;;;16.50;99.90;;;;;;5019209;28;20171;-57
2022/09/07 03:41:04;;;;;;;29.33;4.25;;;16.50;99.90;;;;;;5013689;28;20708;-56
2022/09/07 03:43:31;;;;;;;26.45;3.75;;;16.50;99.90;;;;;;5014084;28;20181;-58
2022/09/07 03:45:59;;;;;;;33.80;4.80;;;16.50;99.90;;;;;;5013885;28;20175;-58
2022/09/07 03:48:25;;;;;;;26.92;4.38;;;16.50;99.90;;;;;;5013856;28;20692;-58
2022/09/07 03:51:05;;;;;;;38.95;4.32;;;16.50;99.90;;;;;;5013599;28;20549;-57
2022/09/07 03:53:35;;;;;;;22.70;3.20;;;16.50;99.90;;;;;;5013737;28;20197;-59
2022/09/07 03:56:07;;;;;;;23.00;3.50;;;16.50;99.90;;;;;;5012284;28;20217;-57
2022/09/07 03:58:34;;;;;;;29.83;3.70;;;16.60;99.90;;;;;;5013621;28;20171;-58
2022/09/07 04:01:03;;;;;;;30.17;4.00;;;16.60;99.90;;;;;;5013504;28;20266;-57
2022/09/07 04:03:29;;;;;;;25.33;4.40;;;16.50;99.90;;;;;;5013395;28;20175;-57
2022/09/07 04:05:58;;;;;;;24.75;3.38;;;16.50;99.90;;;;;;5013396;28;20174;-57
2022/09/07 04:08:25;;;;;;;26.48;3.88;;;16.40;99.90;;;;;;5013441;28;20198;-57
2022/09/07 04:10:51;;;;;;;29.08;3.83;;;16.40;99.90;;;;;;5013416;28;20171;-57
2022/09/07 04:13:16;;;;;;;30.83;3.95;;;16.30;99.90;;;;;;5013375;28;20273;-58
2022/09/07 04:15:42;;;;;;;32.05;3.80;;;16.30;99.90;;;;;;5013174;28;20218;-58
2022/09/07 04:18:08;;;;;;;25.30;3.90;;;16.20;99.90;;;;;;5013357;28;20175;-57
2022/09/07 04:20:33;;;;;;;33.72;4.95;;;16.20;99.90;;;;;;5013488;28;20170;-58
2022/09/07 04:22:59;;;;;;;25.92;4.47;;;16.20;99.90;;;;;;5013207;28;20187;-58
2022/09/07 04:25:24;;;;;;;27.30;3.75;;;16.20;99.90;;;;;;5013301;28;20182;-57
2022/09/07 04:27:50;;;;;;;40.72;4.55;;;16.20;99.90;;;;;;5012982;28;20178;-57
2022/09/07 04:30:16;;;;;;;31.60;4.05;;;16.20;99.90;;;;;;5013069;28;20171;-57
2022/09/07 04:32:41;;;;;;;24.67;3.13;;;16.20;99.90;;;;;;5013035;28;20171;-57
2022/09/07 04:35:08;;;;;;;28.92;4.10;;;16.10;99.90;;;;;;5012793;28;20163;-58
2022/09/07 04:37:34;;;;;;;23.42;3.47;;;16.10;99.90;;;;;;5012849;28;20645;-57
2022/09/07 04:39:59;;;;;;;30.05;3.50;;;16.20;99.90;;;;;;5012222;28;20215;-57
2022/09/07 04:42:25;;;;;;;38.65;4.25;;;16.20;99.90;;;;;;5012242;28;20225;-57
2022/09/07 04:44:50;;;;;;;36.80;4.80;;;16.20;99.90;;;;;;5012746;28;20805;-60
2022/09/07 04:47:16;;;;;;;36.17;4.90;;;16.20;99.90;;;;;;5012657;28;20182;-58
2022/09/07 04:49:42;;;;;;;26.90;3.92;;;16.30;99.90;;;;;;5012645;28;20174;-58
2022/09/07 04:52:08;;;;;;;29.38;4.63;;;16.20;99.90;;;;;;5012819;28;20185;-58
2022/09/07 04:54:33;;;;;;;29.48;4.22;;;16.30;99.90;;;;;;5012642;28;20174;-57
2022/09/07 04:56:59;;;;;;;38.63;4.38;;;16.30;99.90;;;;;;5012536;28;20280;-59
2022/09/07 04:59:24;;;;;;;29.27;4.22;;;16.30;99.90;;;;;;5012483;28;20322;-58
2022/09/07 05:01:50;;;;;;;28.40;4.40;;;16.30;99.90;;;;;;5012464;28;20186;-58
2022/09/07 05:04:16;;;;;;;30.23;4.55;;;16.30;99.90;;;;;;5012470;28;20589;-58
2022/09/07 05:06:41;;;;;;;33.33;4.00;;;16.20;99.90;;;;;;5012453;28;20178;-58
2022/09/07 05:09:09;;;;;;;30.45;5.05;;;16.20;99.90;;;;;;5012558;28;20174;-58
2022/09/07 05:11:34;;;;;;;28.33;4.40;;;16.10;99.90;;;;;;5012368;28;20179;-58
2022/09/07 05:14:02;;;;;;;29.15;4.63;;;16.10;99.90;;;;;;5012353;28;20187;-59
2022/09/07 05:16:29;;;;;;;31.90;4.32;;;16.10;99.90;;;;;;5012263;28;20289;-59
2022/09/07 05:18:57;;;;;;;36.75;5.28;;;16.00;99.90;;;;;;5012106;28;20171;-58
2022/09/07 05:21:25;;;;;;;35.90;4.55;;;16.00;99.90;;;;;;5012191;28;20170;-57
2022/09/07 05:23:53;;;;;;;46.58;5.18;;;16.00;99.90;;;;;;5012102;28;20174;-60
2022/09/07 05:26:20;;;;;;;35.42;4.65;;;16.00;99.90;;;;;;5012063;28;20547;-58
2022/09/07 05:28:46;;;;;;;30.25;3.95;;;16.00;99.90;;;;;;5012066;28;20587;-57
2022/09/07 05:31:15;;;;;;;34.78;4.70;;;16.00;99.90;;;;;;5011897;28;20661;-58
2022/09/07 05:33:45;;;;;;;42.58;4.25;;;15.90;99.90;;;;;;5012079;28;20217;-57
2022/09/07 05:36:11;;;;;;;36.10;5.25;;;15.90;99.90;;;;;;5011850;28;20272;-58
2022/09/07 05:38:36;;;;;;;31.92;4.60;;;15.90;99.90;;;;;;5011800;28;20538;-57
2022/09/07 05:41:20;;;;;;;38.22;4.90;;;15.90;99.90;;;;;;5016832;28;20218;-59
2022/09/07 05:43:46;;;;;;;32.10;5.00;;;15.80;99.90;;;;;;5031618;28;20169;-58
2022/09/07 05:46:13;;;;;;;34.58;5.20;;;15.90;99.90;;;;;;5019693;28;20167;-57
2022/09/07 05:48:39;;;;;;;33.42;4.55;;;15.80;99.90;;;;;;5011570;28;20179;-58
2022/09/07 05:51:05;;;;;;;35.88;5.07;;;15.80;99.90;;;;;;5011563;28;20611;-57
2022/09/07 05:53:34;;;;;;;41.45;4.57;;;15.80;99.90;;;;;;5011241;28;20174;-57
2022/09/07 05:56:00;;;;;;;30.42;4.65;;;15.80;99.90;;;;;;5011342;28;20218;-58
2022/09/07 05:58:27;;;;;;;36.72;5.30;;;15.80;99.90;;;;;;5023103;28;20174;-57
2022/09/07 06:00:57;;;;;;;31.95;4.95;;;15.80;99.90;;;;;;5031199;28;20210;-57
2022/09/07 06:03:23;;;;;;;36.50;4.97;;;15.80;99.90;;;;;;5030943;28;20213;-58
2022/09/07 06:06:01;;;;;;;34.05;4.68;;;15.80;99.90;;;;;;5031119;28;20178;-58
2022/09/07 06:08:28;;;;;;;32.38;4.20;;;15.90;99.90;;;;;;5030910;28;20212;-58
2022/09/07 06:10:54;;;;;;;35.05;5.22;;;15.90;99.90;;;;;;5031017;28;20174;-59
2022/09/07 06:13:19;;;;;;;25.40;4.10;;;15.90;99.90;;;;;;5030690;28;20206;-59
2022/09/07 06:15:45;;;;;;;35.25;5.00;;;15.80;99.90;;;;;;5031045;28;20205;-59
2022/09/07 06:18:11;;;;;;;34.33;4.82;;;15.80;99.90;;;;;;5030961;28;20260;-58
2022/09/07 06:20:36;;;;;;;40.05;4.53;;;15.90;99.90;;;;;;5030893;28;20667;-58
2022/09/07 06:23:02;;;;;;;30.27;5.00;;;15.90;99.90;;;;;;5030823;28;20231;-58
2022/09/07 06:25:28;;;;;;;38.17;4.97;;;15.90;99.90;;;;;;5030825;28;20228;-59
2022/09/07 06:27:53;;;;;;;29.50;4.70;;;16.00;99.90;;;;;;5030770;28;20248;-58
2022/09/07 06:30:19;;;;;;;35.22;4.95;;;16.00;99.90;;;;;;5030985;28;20173;-58
2022/09/07 06:32:45;;;;;;;36.17;5.93;;;16.10;99.90;;;;;;5030964;28;20632;-58
2022/09/07 06:35:12;;;;;;;39.80;4.80;;;16.10;99.90;;;;;;5030639;28;20253;-59
2022/09/07 06:37:38;;;;;;;28.27;4.95;;;16.20;99.90;;;;;;5030480;28;20178;-58
2022/09/07 06:40:04;;;;;;;35.10;4.88;;;16.20;99.90;;;;;;5030453;28;20699;-59
2022/09/07 06:42:29;;;;;;;27.75;3.88;;;16.30;99.90;;;;;;5030479;28;20182;-59
2022/09/07 06:44:55;;;;;;;32.28;4.55;;;16.30;99.90;;;;;;5030648;28;20184;-59
2022/09/07 06:47:20;;;;;;;37.58;5.25;;;16.50;99.90;;;;;;5030586;28;20232;-58
2022/09/07 06:49:46;;;;;;;32.65;5.22;;;16.50;99.90;;;;;;5030648;28;20172;-59
2022/09/07 06:52:12;;;;;;;32.17;3.88;;;16.70;99.90;;;;;;5030487;28;20659;-59
2022/09/07 06:54:38;;;;;;;32.22;4.95;;;16.80;99.90;;;;;;5030970;28;20186;-59
2022/09/07 06:57:07;;;;;;;31.40;4.13;;;16.90;99.90;;;;;;5030347;28;20769;-59
2022/09/07 06:59:36;;;;;;;30.92;4.28;;;16.70;99.90;;;;;;5030423;28;20162;-58
2022/09/07 07:02:02;;;;;;;36.70;5.25;;;17.10;99.90;;;;;;5030365;28;20526;-57
2022/09/07 07:04:28;;;;;;;34.20;4.05;;;17.20;99.90;;;;;;5031923;28;20169;-58
2022/09/07 07:06:54;;;;;;;31.75;4.60;;;17.30;99.90;;;;;;5034145;28;20184;-57
2022/09/07 07:09:19;;;;;;;38.20;4.72;;;17.30;99.90;;;;;;5034288;28;20170;-57
2022/09/07 07:11:46;;;;;;;29.13;4.70;;;17.40;99.90;;;;;;5034012;28;20649;-57
2022/09/07 07:14:15;;;;;;;31.40;5.10;;;17.50;99.90;;;;;;5034124;28;20671;-57
2022/09/07 07:16:41;;;;;;;30.27;4.22;;;17.60;99.90;;;;;;5034126;28;20283;-58
2022/09/07 07:19:07;;;;;;;29.33;4.20;;;17.60;99.90;;;;;;5034113;28;20641;-58
2022/09/07 07:21:32;;;;;;;33.45;4.13;;;17.80;99.90;;;;;;5033954;28;20536;-58
2022/09/07 07:23:58;;;;;;;26.65;4.13;;;17.90;99.90;;;;;;5034248;28;20178;-58
2022/09/07 07:26:27;;;;;;;24.42;4.47;;;18.10;99.90;;;;;;5034028;28;20166;-59
2022/09/07 07:28:55;;;;;;;21.95;3.42;;;18.20;99.90;;;;;;5033872;28;20269;-58
2022/09/07 07:31:23;;;;;;;27.63;4.30;;;18.40;99.90;;;;;;5033973;28;20178;-58
2022/09/07 07:33:51;;;;;;;30.17;4.65;;;18.30;99.90;;;;;;5033657;28;20304;-57
2022/09/07 07:36:20;;;;;;;26.30;4.63;;;18.50;99.90;;;;;;5033908;28;20232;-57
2022/09/07 07:38:48;;;;;;;37.35;4.40;;;18.60;99.90;;;;;;5033534;28;20222;-58
2022/09/07 07:41:16;;;;;;;27.85;3.30;;;18.60;99.90;;;;;;5033410;28;20222;-58
2022/09/07 07:43:42;;;;;;;33.05;4.30;;;18.70;99.90;;;;;;5033425;28;20170;-57
2022/09/07 07:46:11;;;;;;;31.92;4.30;;;18.80;99.90;;;;;;5033490;28;20170;-58
2022/09/07 07:48:37;;;;;;;24.52;3.92;;;18.80;99.90;;;;;;5033427;28;20174;-57
2022/09/07 07:51:05;;;;;;;26.58;4.18;;;18.90;99.90;;;;;;5033529;28;20169;-58
2022/09/07 07:53:33;;;;;;;22.92;3.30;;;18.80;99.90;;;;;;5033572;28;20174;-59
2022/09/07 07:55:59;;;;;;;23.48;3.72;;;18.80;99.90;;;;;;5033321;28;20213;-59
2022/09/07 07:58:28;;;;;;;21.48;3.83;;;18.80;99.90;;;;;;5033339;28;20327;-58
2022/09/07 08:00:59;;;;;;;30.77;3.75;;;18.70;99.90;;;;;;5033242;28;20174;-58
2022/09/07 08:03:24;;;;;;;24.45;3.65;;;18.70;99.90;;;;;;5033122;28;20180;-58
2022/09/07 08:05:50;;;;;;;25.92;3.30;;;18.80;99.90;;;;;;5033246;28;20184;-58
2022/09/07 08:08:17;;;;;;;16.30;2.83;;;19.10;99.90;;;;;;5033112;28;20178;-58
2022/09/07 08:10:42;;;;;;;22.05;3.25;;;18.90;99.90;;;;;;5033131;28;20176;-58
2022/09/07 08:13:08;;;;;;;20.92;2.80;;;19.00;99.90;;;;;;5033068;28;20173;-58
2022/09/07 08:15:43;;;;;;;19.13;3.35;;;19.80;99.90;;;;;;5032650;28;20730;-57
2022/09/07 08:18:11;;;;;;;22.45;3.75;;;19.80;99.90;;;;;;5033116;28;20185;-57
2022/09/07 08:20:37;;;;;;;24.52;3.85;;;19.50;99.90;;;;;;5027360;28;20229;-59
2022/09/07 08:23:02;;;;;;;23.73;3.75;;;19.50;99.90;;;;;;5022587;28;20170;-58
2022/09/07 08:25:28;;;;;;;22.50;2.78;;;19.40;99.90;;;;;;5013452;28;20179;-58
2022/09/07 08:27:53;;;;;;;21.05;3.20;;;19.30;99.90;;;;;;5029722;28;20628;-58
2022/09/07 08:30:19;;;;;;;26.90;4.20;;;19.30;99.90;;;;;;5032856;28;20178;-58
2022/09/07 08:32:45;;;;;;;23.98;3.47;;;19.40;99.90;;;;;;5032883;28;20197;-58
2022/09/07 08:35:11;;;;;;;22.67;3.35;;;19.40;99.90;;;;;;5033007;28;20185;-59
2022/09/07 08:37:36;;;;;;;14.88;2.75;;;19.60;99.90;;;;;;5033068;28;20524;-59
2022/09/07 08:40:02;;;;;;;24.48;3.75;;;19.20;99.90;;;;;;5032777;28;20271;-58
2022/09/07 08:42:41;;;;;;;25.00;3.30;;;19.30;99.90;;;;;;5033022;28;20208;-58
2022/09/07 08:45:19;;;;;;;21.67;3.33;;;19.40;99.90;;;;;;5032628;28;20181;-58
2022/09/07 08:47:50;;;;;;;14.50;2.70;;;19.60;99.90;;;;;;5032677;28;20169;-58
2022/09/07 08:50:39;;;;;;;24.20;3.22;;;20.20;99.90;;;;;;5032605;28;20174;-58
2022/09/07 08:53:15;;;;;;;18.35;3.17;;;21.20;99.90;;;;;;5032361;28;20202;-58
2022/09/07 08:55:54;;;;;;;23.70;3.67;;;21.20;99.90;;;;;;5032455;28;20212;-57
2022/09/07 08:58:42;;;;;;;18.23;3.25;;;20.80;99.90;;;;;;5032407;28;20169;-57
2022/09/07 09:01:18;;;;;;;19.65;3.30;;;20.90;99.90;;;;;;5032270;28;20257;-58
2022/09/07 09:03:47;;;;;;;18.63;3.72;;;20.20;99.90;;;;;;5032269;28;20181;-58
2022/09/07 09:06:27;;;;;;;20.65;2.75;;;20.00;99.90;;;;;;5032212;28;20178;-57
2022/09/07 09:09:12;;;;;;;18.70;3.28;;;20.80;99.90;;;;;;5032195;28;20245;-58
2022/09/07 09:12:10;;;;;;;19.40;2.88;;;21.20;99.90;;;;;;5032160;28;20185;-58
2022/09/07 09:15:00;;;;;;;15.02;2.95;;;22.10;99.90;;;;;;5031974;28;20262;-58
2022/09/07 09:17:42;;;;;;;18.08;3.42;;;22.90;99.90;;;;;;5031914;28;20196;-58
2022/09/07 09:20:30;;;;;;;15.60;3.80;;;24.20;99.90;;;;;;5030360;28;20271;-58
2022/09/07 09:23:14;;;;;;;18.92;3.25;;;24.20;99.90;;;;;;5031846;28;20182;-58
2022/09/07 09:25:55;;;;;;;18.17;3.08;;;22.90;99.90;;;;;;5032049;28;20166;-59
2022/09/07 09:28:21;;;;;;;20.38;3.38;;;22.60;99.90;;;;;;5031239;28;20177;-56
2022/09/07 09:30:47;;;;;;;19.52;2.90;;;21.60;99.90;;;;;;5031729;28;20174;-58
2022/09/07 09:33:20;;;;;;;21.30;2.85;;;20.70;99.90;;;;;;5031745;28;20173;-56
2022/09/07 09:35:51;;;;;;;20.98;3.25;;;21.10;99.90;;;;;;5031336;28;20212;-56
2022/09/07 09:38:42;;;;;;;20.38;3.35;;;22.00;99.90;;;;;;5031556;28;20177;-56
2022/09/07 09:41:13;;;;;;;17.85;3.35;;;23.00;99.90;;;;;;5031152;28;20218;-57
2022/09/07 09:43:57;;;;;;;14.38;2.75;;;24.40;99.90;;;;;;5031372;28;20185;-59
2022/09/07 09:46:32;;;;;;;14.07;3.35;;;25.10;99.90;;;;;;5031380;28;20178;-57
2022/09/07 09:49:33;;;;;;;15.30;3.03;;;25.90;99.90;;;;;;5031326;28;20184;-58
2022/09/07 09:52:02;;;;;;;12.57;2.92;;;24.70;99.90;;;;;;5031343;28;20174;-58
2022/09/07 09:54:31;;;;;;;16.63;3.35;;;23.10;99.90;;;;;;5031287;28;20184;-57
2022/09/07 09:56:58;;;;;;;20.23;3.67;;;21.70;99.90;;;;;;5031215;28;20198;-58
2022/09/07 09:59:28;;;;;;;26.70;3.92;;;20.90;99.90;;;;;;5031281;28;20166;-58
2022/09/07 10:01:54;;;;;;;14.07;2.47;;;20.30;99.90;;;;;;5031154;28;20197;-58
2022/09/07 10:04:24;;;;;;;19.05;3.80;;;19.40;99.90;;;;;;5030927;28;20158;-57
2022/09/07 10:06:55;;;;;;;17.70;3.17;;;19.10;99.90;;;;;;5031361;28;20239;-57
2022/09/07 10:09:25;;;;;;;18.38;2.85;;;18.90;99.90;;;;;;5031063;28;20178;-58
2022/09/07 10:11:59;;;;;;;17.92;3.00;;;18.80;99.90;;;;;;5031014;28;20257;-57
2022/09/07 10:14:29;;;;;;;19.25;3.47;;;18.90;99.90;;;;;;5030874;28;20173;-58
2022/09/07 10:16:56;;;;;;;19.73;2.63;;;18.90;99.90;;;;;;5030845;28;20229;-58
2022/09/07 10:19:31;;;;;;;23.42;3.33;;;18.70;99.90;;;;;;5030926;28;20185;-58
2022/09/07 10:21:59;;;;;;;18.80;2.78;;;18.60;99.90;;;;;;5031067;28;20252;-58
2022/09/07 10:24:29;;;;;;;18.83;2.78;;;18.30;99.90;;;;;;5031121;28;20178;-59
2022/09/07 10:26:55;;;;;;;23.20;3.47;;;18.10;99.90;;;;;;5031003;28;20166;-59
2022/09/07 10:29:30;;;;;;;22.85;3.33;;;17.90;99.90;;;;;;5031037;28;20519;-59
2022/09/07 10:32:32;;;;;;;20.08;2.90;;;17.80;99.90;;;;;;5029709;28;20211;-59
2022/09/07 10:35:03;;;;;;;18.80;2.38;;;17.60;99.90;;;;;;5021816;28;20703;-60
2022/09/07 10:37:32;;;;;;;16.38;2.83;;;17.40;99.90;;;;;;5011157;28;20186;-59
2022/09/07 10:40:04;;;;;;;18.40;3.17;;;17.30;99.90;;;;;;5029049;28;20297;-60
2022/09/07 10:42:36;;;;;;;22.83;2.65;;;17.30;99.90;;;;;;5035190;28;20260;-59
2022/09/07 10:45:18;;;;;;;18.70;2.72;;;17.40;99.90;;;;;;5035220;28;20628;-61
2022/09/07 10:48:08;;;;;;;20.25;2.45;;;17.60;99.90;;;;;;5035039;28;20180;-59
2022/09/07 10:50:51;;;;;;;25.80;3.40;;;17.90;99.90;;;;;;5034887;28;20197;-57
2022/09/07 10:53:28;;;;;;;22.27;3.20;;;18.60;99.90;;;;;;5034650;28;20170;-57
2022/09/07 10:56:26;;;;;;;23.15;4.00;;;19.70;99.90;;;;;;5034544;28;20205;-57
2022/09/07 10:59:43;;;;;;;19.70;3.13;;;20.80;99.90;;;;;;5034646;28;20180;-58
2022/09/07 11:02:31;;;;;;;21.85;3.17;;;22.00;99.90;;;;;;5011681;28;20190;-57
2022/09/07 11:05:07;;;;;;;20.90;4.40;;;20.80;99.90;;;;;;5034603;28;20182;-58
2022/09/07 11:07:54;;;;;;;18.23;3.05;;;20.00;99.90;;;;;;5034440;28;20228;-58
2022/09/07 11:10:46;;;;;;;19.23;3.25;;;19.80;99.90;;;;;;5034387;28;20231;-57
2022/09/07 11:13:17;;;;;;;18.85;2.75;;;19.30;99.90;;;;;;5034371;28;20726;-58
2022/09/07 11:16:06;;;;;;;19.85;3.15;;;18.90;99.90;;;;;;5032822;28;20214;-57
2022/09/07 11:18:41;;;;;;;24.23;3.65;;;19.40;99.90;;;;;;5034163;28;20192;-58
2022/09/07 11:21:13;;;;;;;24.90;3.30;;;20.50;99.90;;;;;;5034157;28;20230;-57
2022/09/07 11:23:52;;;;;;;13.32;2.85;;;21.80;99.90;;;;;;5033945;28;20659;-58
2022/09/07 11:26:23;;;;;;;14.95;2.92;;;22.70;99.90;;;;;;5034188;28;20173;-59
2022/09/07 11:29:11;;;;;;;17.35;3.00;;;23.20;99.90;;;;;;5034085;28;20771;-58
2022/09/07 11:31:45;;;;;;;19.15;3.15;;;23.10;99.90;;;;;;5033976;28;20239;-57
2022/09/07 11:34:19;;;;;;;12.48;2.20;;;23.00;99.90;;;;;;5033980;28;20174;-57
2022/09/07 11:36:54;;;;;;;16.67;2.80;;;23.50;99.90;;;;;;5033760;28;20206;-58
2022/09/07 11:39:28;;;;;;;15.45;2.80;;;22.60;99.90;;;;;;5033588;28;20306;-56
2022/09/07 11:42:24;;;;;;;14.85;2.55;;;22.50;99.90;;;;;;5033699;28;20187;-58
2022/09/07 11:45:00;;;;;;;14.95;2.63;;;22.00;99.90;;;;;;5030039;28;20328;-57
2022/09/07 11:47:43;;;;;;;19.33;2.97;;;22.20;99.90;;;;;;5033707;28;20170;-57
2022/09/07 11:50:17;;;;;;;15.00;2.22;;;22.00;99.90;;;;;;5032871;28;20178;-58
2022/09/07 11:52:51;;;;;;;14.88;2.63;;;21.70;99.90;;;;;;5032403;28;20173;-57
2022/09/07 11:55:27;;;;;;;15.57;2.45;;;21.50;99.90;;;;;;5033568;28;20205;-57
2022/09/07 11:58:24;;;;;;;8.93;1.52;;;21.80;99.90;;;;;;5033644;28;20647;-57
2022/09/07 12:01:08;;;;;;;21.33;3.20;;;21.50;99.90;;;;;;5033491;28;20660;-57
2022/09/07 12:04:02;;;;;;;17.40;3.10;;;20.70;99.90;;;;;;5033501;28;20234;-57
2022/09/07 12:07:02;;;;;;;18.05;2.95;;;20.60;99.90;;;;;;5033368;28;20170;-57
2022/09/07 12:10:03;;;;;;;14.02;1.70;;;20.30;99.90;;;;;;5033630;28;20182;-57
2022/09/07 12:12:46;;;;;;;9.68;1.42;;;19.50;99.90;;;;;;5033350;28;20213;-57
2022/09/07 12:15:45;;;;;;;12.65;2.28;;;19.00;99.90;;;;;;5033190;28;20170;-57
2022/09/07 12:18:24;;;;;;;14.75;2.72;;;19.00;99.90;;;;;;5033195;28;20696;-58
2022/09/07 12:20:49;;;;;;;14.60;2.22;;;19.10;99.90;;;;;;5033341;28;20170;-58
2022/09/07 12:23:15;;;;;;;12.77;2.90;;;19.90;99.90;;;;;;5033109;28;20293;-58
2022/09/07 12:25:48;;;;;;;13.20;2.92;;;20.10;99.90;;;;;;5033108;28;20174;-58
2022/09/07 12:28:36;;;;;;;16.58;2.60;;;20.40;99.90;;;;;;5033238;28;20173;-59
2022/09/07 12:31:05;;;;;;;15.25;2.83;;;20.00;99.90;;;;;;5032906;28;20249;-56
2022/09/07 12:33:34;;;;;;;13.80;3.30;;;20.00;99.90;;;;;;5032880;28;20181;-57
2022/09/07 12:36:01;;;;;;;14.63;2.00;;;19.90;99.90;;;;;;5032680;28;20222;-56
2022/09/07 12:38:29;;;;;;;16.67;2.60;;;19.70;99.90;;;;;;5032945;28;20185;-57
2022/09/07 12:41:21;;;;;;;14.05;2.75;;;19.40;99.90;;;;;;5018824;28;20223;-58
2022/09/07 12:43:47;;;;;;;11.93;2.00;;;19.90;99.90;;;;;;5032858;28;20637;-58
2022/09/07 12:46:33;;;;;;;18.13;2.78;;;20.30;99.90;;;;;;5032819;28;20178;-58
2022/09/07 12:49:27;;;;;;;12.27;2.17;;;21.70;99.90;;;;;;5025537;28;20194;-58
2022/09/07 12:52:14;;;;;;;18.45;3.00;;;22.70;99.90;;;;;;5032451;28;20201;-59
2022/09/07 12:54:52;;;;;;;17.60;3.17;;;23.20;99.90;;;;;;5032685;28;20241;-59
2022/09/07 12:57:36;;;;;;;16.38;2.88;;;23.50;99.90;;;;;;5032356;28;20305;-58
2022/09/07 13:00:08;;;;;;;17.85;2.90;;;23.90;99.90;;;;;;5032349;28;20201;-57
2022/09/07 13:03:02;;;;;;;19.42;3.38;;;23.40;99.90;;;;;;5031341;28;20617;-57